LFMN Airport Information

Runway Information
Runway 04L Length 8995 ft width 148 ft
Elevation 10 ft Threshold 0 ft Heading 45
Runway 22R Length 8995 ft Width 148 ft
Elevation 10 ft Threshold 575 ft Heading 225
Runway 04R Length 9712 ft width 148 ft
Elevation 10 ft Threshold 0 ft Heading 45
Runway 22L Length 9712 ft Width 148 ft
Elevation 12 ft Threshold 0 ft Heading 225
Airport Frequencies
Type A/D Name NICE APP Frequency 124.175 MHZ
Type ATIS Name NICE ATIS Frequency 129.6 MHZ
Type GND Name NICE GND Frequency 121.775 MHZ
Type TWR Name NICE TWR Frequency 118.7 MHZ
Airport Navaids
Type VOR-DME Name Nice Cote D Azur Frequency 109650 KHZ
Type VOR-DME Name Cagnes Sur Mer Frequency 109200 KHZ
Type NDB Name Nice Frequency 399 KHZ
Type VOR-DME Name Nice Frequency 112400 KHZ
Airport Weather Information & NOTAM
ADDS - METARS form results

(0707 UTC 20 May 2022)
Data provider http://aviationweather.gov/metar/data/
 
METAR text: LFMN 200700Z VRB02KT CAVOK 24/12 Q1027 NOSIG
Conditions at: LFMN (NICE/COTE D'AZUR, FR) observed 0700 UTC 20 May 2022
Temperature: 24.0°C (75°F)
Dewpoint: 12.0°C (54°F) [RH = 47%]
Pressure (altimeter): 30.32 inches Hg (1027.0 mb)
Winds: variable direction winds at 2 MPH (2 knots; 1.0 m/s)
Visibility: 6 or more miles (10+ km)
Ceiling: ceiling and visibility are OK
Clouds: unknown
Weather: no significant weather observed at this time

METAR text: LFMN 200630Z 34005KT 310V010 CAVOK 23/11 Q1027 NOSIG
Conditions at: LFMN (NICE/COTE D'AZUR, FR) observed 0630 UTC 20 May 2022
Temperature: 23.0°C (73°F)
Dewpoint: 11.0°C (52°F) [RH = 47%]
Pressure (altimeter): 30.32 inches Hg (1027.0 mb)
Winds: from the NNW (340 degrees) at 6 MPH (5 knots; 2.6 m/s)
Visibility: 6 or more miles (10+ km)
Ceiling: ceiling and visibility are OK
Clouds: unknown
Weather: no significant weather observed at this time

Forecast for: LFMN (NICE/COTE D'AZUR, FR)
Text: TAF LFMN 200200Z 2003/2109 33005KT CAVOK
Forecast period: 0300 UTC 20 May 2022 to 0900 UTC 21 May 2022
Forecast type: FROM: standard forecast or significant change
Winds: from the NNW (330 degrees) at 6 MPH (5 knots; 2.6 m/s)
Visibility: 6 or more miles (10+ km)
Ceiling: unknown
Clouds: missing
Weather: NSW  (no significant weather)
Text: TEMPO 2009/2013 10010KT
Forecast period: 0900 to 1300 UTC 20 May 2022
Forecast type: TEMPORARY: The following changes expected for less than half the time period
Winds: from the E (100 degrees) at 12 MPH (10 knots; 5.1 m/s)
Visibility: missing
Ceiling: unknown
Clouds: missing
Weather: no significant weather forecast for this period
Text: TEMPO 2018/2108 4000 BR BKN005
Forecast period: 1800 UTC 20 May 2022 to 0800 UTC 21 May 2022
Forecast type: TEMPORARY: The following changes expected for less than half the time period
Visibility: 2.49 miles (4.01 km)
Ceiling: 500 feet AGL
Clouds: broken clouds at 500 feet AGL
Weather: BR  (mist)